Time,TemperatureF,DewpointF,PressureIn,WindDirection,WindDirectionDegrees,WindSpeedMPH,WindSpeedGustMPH,Humidity,HourlyPrecipIn,Conditions,Clouds,dailyrainin,SoftwareType,DateUTC
2013-06-29 16:13:00,72.9,59.1,29.97,SE,141,1.0,6.0,62,0.00,CLR,,0.00,WeatherDisplay:10.37,2013-06-30 00:13:00,
2013-06-29 16:28:00,73.9,58.1,29.97,SW,234,0.0,4.0,58,0.00,CLR,,0.00,WeatherDisplay:10.37,2013-06-30 00:28:00,
2013-06-29 16:43:00,74.9,58.1,29.96,South,188,2.0,6.0,56,0.00,CLR,,0.00,WeatherDisplay:10.37,2013-06-30 00:43:00,
2013-06-29 16:58:00,75.9,58.6,29.96,WSW,239,0.0,4.0,55,0.00,CLR,,0.00,WeatherDisplay:10.37,2013-06-30 00:58:00,
2013-06-29 17:13:00,76.9,58.5,29.95,SSE,149,1.0,6.0,53,0.00,CLR,,0.00,WeatherDisplay:10.37,2013-06-30 01:13:00,
2013-06-29 17:28:00,76.9,57.9,29.95,South,178,0.0,8.0,52,0.00,CLR,,0.00,WeatherDisplay:10.37,2013-06-30 01:28:00,
2013-06-29 17:43:00,76.9,57.9,29.94,SE,132,1.0,7.0,52,0.00,CLR,,0.00,WeatherDisplay:10.37,2013-06-30 01:43:00,
2013-06-29 17:58:00,76.9,57.9,29.94,SSE,161,2.0,6.0,52,0.00,CLR,,0.00,WeatherDisplay:10.37,2013-06-30 01:58:00,
2013-06-29 18:13:00,76.9,57.4,29.93,SE,125,2.0,6.0,51,0.00,CLR,,0.00,WeatherDisplay:10.37,2013-06-30 02:13:00,
2013-06-29 18:28:00,76.9,57.4,29.92,East,90,1.0,5.0,51,0.00,CLR,,0.00,WeatherDisplay:10.37,2013-06-30 02:28:00,
2013-06-29 18:43:00,76.9,57.4,29.92,East,83,2.0,5.0,51,0.00,CLR,,0.00,WeatherDisplay:10.37,2013-06-30 02:43:00,
2013-06-29 18:58:00,76.9,56.8,29.92,SE,141,3.0,6.0,50,0.00,CLR,,0.00,WeatherDisplay:10.37,2013-06-30 02:58:00,
2013-06-29 19:13:00,76.9,56.8,29.91,East,89,2.0,5.0,50,0.00,CLR,,0.00,WeatherDisplay:10.37,2013-06-30 03:13:00,
2013-06-29 19:28:00,76.9,56.3,29.91,East,99,2.0,3.0,49,0.00,CLR,,0.00,WeatherDisplay:10.37,2013-06-30 03:28:00,
2013-06-29 19:43:00,76.9,56.3,29.91,SE,139,1.0,5.0,49,0.00,CLR,,0.00,WeatherDisplay:10.37,2013-06-30 03:43:00,
2013-06-29 19:58:00,76.9,56.3,29.91,East,80,0.0,4.0,49,0.00,CLR,,0.00,WeatherDisplay:10.37,2013-06-30 03:58:00,
2013-06-29 20:13:00,76.9,55.7,29.91,ESE,111,0.0,2.0,48,0.00,CLR,,0.00,WeatherDisplay:10.37,2013-06-30 04:13:00,
2013-06-29 20:28:00,76.9,56.3,29.91,ESE,104,0.0,0.0,49,0.00,CLR,,0.00,WeatherDisplay:10.37,2013-06-30 04:28:00,
2013-06-29 20:43:00,76.9,56.3,29.90,ESE,104,0.0,0.0,49,0.00,CLR,,0.00,WeatherDisplay:10.37,2013-06-30 04:43:00,
2013-06-29 20:58:00,76.9,57.4,29.90,ESE,104,0.0,0.0,51,0.00,CLR,,0.00,WeatherDisplay:10.37,2013-06-30 04:58:00,
2013-06-29 21:13:00,76.9,57.9,29.90,ESE,104,0.0,0.0,52,0.00,CLR,,0.00,WeatherDisplay:10.37,2013-06-30 05:13:00,
2013-06-29 21:28:00,76.9,59.0,29.90,ESE,104,0.0,0.0,54,0.00,CLR,,0.00,WeatherDisplay:10.37,2013-06-30 05:28:00,
2013-06-29 21:43:00,76.4,59.1,29.89,ESE,104,0.0,0.0,55,0.00,CLR,,0.00,WeatherDisplay:10.37,2013-06-30 05:43:00,
2013-06-29 21:58:00,75.7,59.4,29.89,East,99,1.0,2.0,57,0.00,CLR,,0.00,WeatherDisplay:10.37,2013-06-30 05:58:00,
2013-06-29 22:13:00,74.8,59.0,29.90,ENE,67,1.0,3.0,58,0.00,CLR,,0.00,WeatherDisplay:10.37,2013-06-30 06:13:00,
2013-06-29 22:28:00,73.7,59.4,29.90,ENE,77,1.0,3.0,61,0.00,CLR,,0.00,WeatherDisplay:10.37,2013-06-30 06:28:00,
2013-06-29 22:43:00,72.9,59.2,29.90,East,88,2.0,3.0,62,0.00,CLR,,0.00,WeatherDisplay:10.37,2013-06-30 06:43:00,
2013-06-29 22:58:00,72.0,58.7,29.89,ENE,66,2.0,3.0,63,0.00,CLR,,0.00,WeatherDisplay:10.37,2013-06-30 06:58:00,
2013-06-29 23:13:00,71.3,58.5,29.90,East,85,2.0,3.0,64,0.00,CLR,,0.00,WeatherDisplay:10.37,2013-06-30 07:13:00,
2013-06-29 23:28:00,70.7,58.3,29.90,ENE,68,2.0,3.0,65,0.00,CLR,,0.00,WeatherDisplay:10.37,2013-06-30 07:28:00,
2013-06-29 23:43:00,69.9,58.0,29.90,East,80,2.0,4.0,66,0.00,CLR,,0.00,WeatherDisplay:10.37,2013-06-30 07:43:00,
2013-06-29 23:58:00,69.4,58.0,29.89,ENE,71,2.0,5.0,67,0.00,CLR,,0.00,WeatherDisplay:10.37,2013-06-30 07:58:00,